Time;durP1;ratioP1;P1;durP2;ratioP2;P2;SDS_P1;SDS_P2;PMS_P1;PMS_P2;Temp;Humidity;BMP_temperature;BMP_pressure;BME280_temperature;BME280_humidity;BME280_pressure;Samples;Min_cycle;Max_cycle;Signal;HPM_P1;HPM_P2
2023/02/05 00:02:09;;;;;;;21.33;11.63;;;10.90;1.00;;;;;;5033285;28;20041;-50
2023/02/05 00:04:35;;;;;;;19.30;11.25;;;10.80;1.00;;;;;;5033218;28;20045;-52
2023/02/05 00:07:01;;;;;;;22.23;10.77;;;11.00;1.00;;;;;;5033087;28;20025;-54
2023/02/05 00:09:27;;;;;;;18.63;9.80;;;10.90;1.00;;;;;;5033460;28;20039;-50
2023/02/05 00:11:53;;;;;;;19.33;9.20;;;10.70;1.00;;;;;;5032228;28;20030;-51
2023/02/05 00:14:19;;;;;;;17.57;10.07;;;10.50;1.00;;;;;;5032511;28;20108;-51
2023/02/05 00:16:45;;;;;;;15.67;8.67;;;10.60;1.00;;;;;;5033480;28;20092;-49
2023/02/05 00:19:11;;;;;;;14.25;8.90;;;10.50;1.00;;;;;;5032932;28;20582;-50
2023/02/05 00:21:36;;;;;;;20.67;8.87;;;10.40;1.00;;;;;;5033265;28;20087;-51
2023/02/05 00:24:02;;;;;;;14.73;7.18;;;10.30;1.00;;;;;;5033538;28;20037;-49
2023/02/05 00:26:28;;;;;;;16.10;7.33;;;10.20;1.00;;;;;;5032681;28;20033;-51
2023/02/05 00:28:54;;;;;;;15.47;8.47;;;10.30;1.00;;;;;;5033059;28;20065;-51
2023/02/05 00:31:21;;;;;;;19.77;7.70;;;10.20;1.00;;;;;;5032527;28;20025;-50
2023/02/05 00:33:48;;;;;;;15.07;7.73;;;10.30;1.00;;;;;;5032436;28;20100;-50
2023/02/05 00:36:14;;;;;;;12.37;6.67;;;10.30;1.00;;;;;;5032519;28;20079;-53
2023/02/05 00:38:42;;;;;;;16.10;6.67;;;10.20;1.00;;;;;;5032737;28;20082;-53
2023/02/05 00:41:08;;;;;;;12.90;6.63;;;10.00;1.00;;;;;;5031164;28;20017;-53
2023/02/05 00:43:34;;;;;;;18.23;7.23;;;9.90;1.00;;;;;;5032736;28;20108;-48
2023/02/05 00:46:00;;;;;;;11.83;6.30;;;10.20;1.00;;;;;;5032122;28;20172;-51
2023/02/05 00:48:26;;;;;;;13.93;7.13;;;10.30;1.00;;;;;;5032186;28;20021;-50
2023/02/05 00:50:52;;;;;;;13.73;5.33;;;10.30;1.00;;;;;;5032128;28;20025;-51
2023/02/05 00:53:19;;;;;;;10.50;6.07;;;10.20;1.00;;;;;;5032459;28;20028;-50
2023/02/05 00:55:45;;;;;;;14.43;6.57;;;10.30;1.00;;;;;;5032260;28;20036;-52
2023/02/05 00:58:10;;;;;;;11.70;5.50;;;10.40;1.00;;;;;;5032223;28;20101;-53
2023/02/05 01:00:37;;;;;;;13.30;5.30;;;10.20;1.00;;;;;;5032217;28;20046;-51
2023/02/05 01:03:02;;;;;;;11.60;4.77;;;10.20;1.00;;;;;;5032189;28;20392;-51
2023/02/05 01:05:29;;;;;;;13.00;4.70;;;10.30;1.00;;;;;;5031104;28;20128;-49
2023/02/05 01:07:55;;;;;;;8.03;4.50;;;10.30;1.00;;;;;;5039670;28;20061;-52
2023/02/05 01:10:21;;;;;;;11.30;4.83;;;10.10;1.00;;;;;;5032137;28;20037;-49
2023/02/05 01:12:48;;;;;;;10.13;4.73;;;10.20;1.00;;;;;;5032195;28;20022;-52
2023/02/05 01:15:14;;;;;;;10.70;4.27;;;10.10;1.00;;;;;;5031363;28;20069;-51
2023/02/05 01:17:40;;;;;;;8.73;3.80;;;10.20;1.00;;;;;;5023068;28;20045;-53
2023/02/05 01:20:07;;;;;;;9.13;4.10;;;10.10;1.00;;;;;;5031690;28;20430;-48
2023/02/05 01:22:32;;;;;;;10.53;4.10;;;10.10;1.00;;;;;;5031905;28;20033;-47
2023/02/05 01:24:58;;;;;;;11.27;3.80;;;10.20;1.00;;;;;;5031426;28;20037;-47
2023/02/05 01:27:23;;;;;;;9.23;4.07;;;10.10;1.00;;;;;;5030955;28;20034;-47
2023/02/05 01:29:50;;;;;;;7.30;3.23;;;10.00;1.00;;;;;;5031701;28;20447;-49
2023/02/05 01:32:16;;;;;;;9.90;3.57;;;9.90;1.00;;;;;;5031998;28;20025;-48
2023/02/05 01:34:43;;;;;;;14.20;3.43;;;10.10;1.00;;;;;;5031369;28;20017;-48
2023/02/05 01:37:08;;;;;;;10.00;3.50;;;10.20;1.00;;;;;;5031809;28;20398;-48
2023/02/05 01:39:36;;;;;;;9.80;3.43;;;10.10;1.00;;;;;;5031153;28;20040;-48
2023/02/05 01:42:03;;;;;;;11.83;3.67;;;10.20;1.00;;;;;;5031374;28;20158;-49
2023/02/05 01:44:29;;;;;;;8.80;3.20;;;9.90;1.00;;;;;;5031265;28;20108;-51
2023/02/05 01:46:56;;;;;;;9.53;3.57;;;10.00;1.00;;;;;;5024513;28;20471;-51
2023/02/05 01:49:34;;;;;;;9.27;3.50;;;10.00;1.00;;;;;;5031653;28;20435;-50
2023/02/05 01:52:05;;;;;;;10.30;3.60;;;10.00;1.00;;;;;;5031247;28;20014;-50
2023/02/05 01:54:34;;;;;;;9.33;4.00;;;10.20;1.00;;;;;;5031707;28;20029;-50
2023/02/05 01:57:05;;;;;;;8.40;3.67;;;10.10;1.00;;;;;;5030395;28;20033;-50
2023/02/05 01:59:34;;;;;;;10.00;3.63;;;10.00;1.00;;;;;;5030585;28;20029;-48
2023/02/05 02:02:05;;;;;;;12.57;3.83;;;9.90;1.00;;;;;;5031156;28;20113;-52
2023/02/05 02:04:36;;;;;;;11.03;4.33;;;9.90;1.00;;;;;;5031504;28;20061;-47
2023/02/05 02:07:03;;;;;;;9.93;3.53;;;10.00;1.00;;;;;;5044858;28;20033;-47
2023/02/05 02:09:29;;;;;;;7.57;3.53;;;10.00;1.00;;;;;;5031475;28;20105;-50
2023/02/05 02:11:55;;;;;;;9.57;3.30;;;10.00;1.00;;;;;;5030174;28;20451;-50
2023/02/05 02:14:23;;;;;;;9.73;3.43;;;9.90;1.00;;;;;;5030236;28;20124;-48
2023/02/05 02:16:50;;;;;;;8.00;3.53;;;9.80;1.00;;;;;;5031042;28;20029;-50
2023/02/05 02:19:44;;;;;;;8.50;3.73;;;9.90;1.00;;;;;;5031032;28;20387;-50
2023/02/05 02:22:28;;;;;;;11.23;4.40;;;10.00;1.00;;;;;;5028897;28;20123;-48
2023/02/05 02:25:12;;;;;;;9.23;3.53;;;10.00;1.00;;;;;;5029855;28;20042;-49
2023/02/05 02:27:46;;;;;;;7.17;3.87;;;10.00;1.00;;;;;;5029617;28;20578;-49
2023/02/05 02:30:17;;;;;;;11.55;3.97;;;10.00;1.00;;;;;;5030095;28;20080;-50
2023/02/05 02:32:50;;;;;;;13.40;4.30;;;9.70;1.00;;;;;;5017019;28;20025;-49
2023/02/05 02:35:32;;;;;;;10.67;4.10;;;9.80;1.00;;;;;;5021530;28;20038;-47
2023/02/05 02:38:19;;;;;;;8.53;4.00;;;9.80;1.00;;;;;;5032500;28;20084;-48
2023/02/05 02:40:54;;;;;;;9.43;3.80;;;9.80;1.00;;;;;;5034306;28;20053;-49
2023/02/05 02:44:04;;;;;;;11.70;3.28;;;9.80;1.00;;;;;;5029598;28;20566;-50
2023/02/05 02:46:40;;;;;;;7.50;3.43;;;9.60;1.00;;;;;;5026152;28;20491;-52
2023/02/05 02:49:12;;;;;;;9.47;3.90;;;9.70;1.00;;;;;;5028303;28;20114;-47
2023/02/05 02:51:41;;;;;;;11.13;3.60;;;9.70;1.00;;;;;;5034606;28;20073;-49
2023/02/05 02:54:11;;;;;;;9.57;3.10;;;9.80;1.00;;;;;;5034909;28;20373;-51
2023/02/05 02:56:39;;;;;;;11.00;3.43;;;9.80;1.00;;;;;;5034768;28;20048;-47
2023/02/05 02:59:09;;;;;;;8.53;2.90;;;9.80;1.00;;;;;;5034397;28;20383;-49
2023/02/05 03:01:38;;;;;;;8.90;3.37;;;9.80;1.00;;;;;;5023495;28;20096;-49
2023/02/05 03:04:10;;;;;;;7.73;3.03;;;9.80;1.00;;;;;;5034099;28;20053;-48
2023/02/05 03:06:38;;;;;;;13.07;4.17;;;9.80;1.00;;;;;;5044219;28;20120;-47
2023/02/05 03:09:14;;;;;;;6.57;3.33;;;9.80;1.00;;;;;;5038002;28;20030;-48
2023/02/05 03:11:39;;;;;;;13.10;3.57;;;9.80;1.00;;;;;;5034248;28;20036;-48
2023/02/05 03:14:05;;;;;;;6.50;2.60;;;9.70;1.00;;;;;;5034413;28;20025;-48
2023/02/05 03:16:31;;;;;;;7.63;2.80;;;9.70;1.00;;;;;;5034263;28;20041;-48
2023/02/05 03:18:57;;;;;;;10.07;3.37;;;9.70;1.00;;;;;;5034282;28;20037;-49
2023/02/05 03:21:38;;;;;;;6.67;3.00;;;9.70;1.00;;;;;;5033850;28;20148;-50
2023/02/05 03:24:04;;;;;;;3.57;2.40;;;9.70;1.00;;;;;;5033650;28;20035;-48
2023/02/05 03:26:34;;;;;;;7.23;2.97;;;9.60;1.00;;;;;;5033787;28;20399;-48
2023/02/05 03:29:08;;;;;;;8.20;2.87;;;9.60;1.00;;;;;;5033512;28;20400;-50
2023/02/05 03:31:57;;;;;;;7.95;2.75;;;9.70;1.00;;;;;;5025618;28;20034;-47
2023/02/05 03:34:41;;;;;;;7.30;2.40;;;9.70;1.00;;;;;;5033853;28;20129;-49
2023/02/05 03:40:13;;;;;;;5.03;2.37;;;9.60;1.00;;;;;;5033906;28;20040;-47
2023/02/05 03:42:51;;;;;;;8.25;2.90;;;9.60;1.00;;;;;;5026341;28;20026;-47
2023/02/05 03:45:38;;;;;;;6.77;2.20;;;9.60;1.00;;;;;;5033400;28;20045;-48
2023/02/05 03:48:20;;;;;;;8.10;3.00;;;9.40;1.00;;;;;;5033350;28;20059;-47
2023/02/05 03:50:52;;;;;;;8.00;2.60;;;9.50;1.00;;;;;;5033362;28;20420;-47
2023/02/05 03:53:29;;;;;;;8.33;2.60;;;9.60;1.00;;;;;;5034105;28;20457;-48
2023/02/05 03:56:33;;;;;;;6.13;2.30;;;9.60;1.00;;;;;;5032911;28;20108;-48
2023/02/05 03:59:00;;;;;;;9.53;2.80;;;9.40;1.00;;;;;;5020860;28;20116;-48
2023/02/05 04:01:26;;;;;;;6.80;2.70;;;9.40;1.00;;;;;;5033754;28;20399;-47
2023/02/05 04:03:52;;;;;;;7.83;2.57;;;9.50;1.00;;;;;;5033239;28;20045;-49
2023/02/05 04:06:17;;;;;;;6.07;2.60;;;9.50;1.00;;;;;;5033441;28;20052;-48
2023/02/05 04:08:43;;;;;;;7.40;2.67;;;9.40;1.00;;;;;;5033475;28;20439;-47
2023/02/05 04:11:09;;;;;;;5.13;2.37;;;9.50;1.00;;;;;;5033186;28;20084;-48
2023/02/05 04:13:35;;;;;;;11.43;3.60;;;9.30;1.00;;;;;;5033446;28;20465;-49
2023/02/05 04:16:01;;;;;;;5.00;2.10;;;9.50;1.00;;;;;;5032902;28;20040;-48
2023/02/05 04:18:26;;;;;;;8.80;2.70;;;9.50;1.00;;;;;;5033226;28;20064;-47
2023/02/05 04:20:52;;;;;;;6.10;2.73;;;9.40;1.00;;;;;;5025526;28;20029;-49
2023/02/05 04:23:17;;;;;;;6.50;2.83;;;9.40;1.00;;;;;;5031965;28;20037;-49
2023/02/05 04:25:43;;;;;;;8.93;2.97;;;9.50;1.00;;;;;;5032870;28;20038;-50
2023/02/05 04:28:11;;;;;;;8.90;2.70;;;9.30;1.00;;;;;;5033138;28;20021;-47
2023/02/05 04:30:38;;;;;;;5.03;1.93;;;9.30;1.00;;;;;;5032696;28;20060;-51
2023/02/05 04:33:03;;;;;;;8.37;2.23;;;9.30;1.00;;;;;;5019341;28;20104;-48
2023/02/05 04:35:29;;;;;;;8.97;2.40;;;9.10;1.00;;;;;;5032682;28;20513;-48
2023/02/05 04:37:55;;;;;;;6.37;2.23;;;9.30;1.00;;;;;;5032825;28;20025;-48
2023/02/05 04:40:20;;;;;;;5.90;2.53;;;9.20;1.00;;;;;;5032773;28;20080;-48
2023/02/05 04:42:46;;;;;;;8.73;2.27;;;9.20;1.00;;;;;;5032943;28;20355;-48
2023/02/05 04:45:11;;;;;;;6.97;2.40;;;9.20;1.00;;;;;;5032938;28;20040;-49
2023/02/05 04:47:37;;;;;;;13.40;3.20;;;9.20;1.00;;;;;;5028170;28;20131;-48
2023/02/05 04:50:03;;;;;;;6.03;2.10;;;9.20;1.00;;;;;;5031550;28;20108;-48
2023/02/05 04:52:29;;;;;;;9.40;2.40;;;9.20;1.00;;;;;;5032728;28;20223;-48
2023/02/05 04:54:55;;;;;;;6.37;2.13;;;9.20;1.00;;;;;;5031191;28;20034;-47
2023/02/05 04:57:20;;;;;;;6.77;2.37;;;9.10;1.00;;;;;;5029584;28;20037;-53
2023/02/05 04:59:46;;;;;;;4.73;2.00;;;9.10;1.00;;;;;;5031953;28;20021;-53
2023/02/05 05:02:12;;;;;;;10.03;2.93;;;9.20;1.00;;;;;;5026641;28;20112;-50
2023/02/05 05:04:37;;;;;;;5.43;2.17;;;9.10;1.00;;;;;;5023457;28;20116;-49
2023/02/05 05:07:03;;;;;;;12.57;2.30;;;9.10;1.00;;;;;;5032150;28;20029;-48
2023/02/05 05:09:29;;;;;;;7.10;2.83;;;9.10;1.00;;;;;;5032558;28;20041;-49
2023/02/05 05:11:57;;;;;;;7.63;2.17;;;9.10;1.00;;;;;;5031928;28;20094;-50
2023/02/05 05:14:23;;;;;;;9.37;2.43;;;9.20;1.00;;;;;;5032422;28;20021;-49
2023/02/05 05:16:49;;;;;;;11.00;2.70;;;9.10;1.00;;;;;;5031288;28;20025;-50
2023/02/05 05:19:15;;;;;;;8.00;2.27;;;9.20;1.00;;;;;;5032077;28;20386;-51
2023/02/05 05:21:41;;;;;;;12.77;2.80;;;9.20;1.00;;;;;;5031754;28;20025;-49
2023/02/05 05:24:06;;;;;;;7.80;2.50;;;9.10;1.00;;;;;;5032066;28;20033;-49
2023/02/05 05:26:32;;;;;;;5.33;2.10;;;9.00;1.00;;;;;;5031724;28;20076;-48
2023/02/05 05:28:58;;;;;;;8.00;2.10;;;9.10;1.00;;;;;;5031974;28;20030;-50
2023/02/05 05:31:24;;;;;;;8.07;2.23;;;9.10;1.00;;;;;;5031880;28;20528;-48
2023/02/05 05:33:49;;;;;;;6.20;2.37;;;9.10;1.00;;;;;;5031822;28;20033;-48
2023/02/05 05:36:16;;;;;;;6.17;2.10;;;9.20;1.00;;;;;;5031440;28;20108;-48
2023/02/05 05:38:42;;;;;;;9.57;2.37;;;9.10;1.00;;;;;;5032038;28;20025;-47
2023/02/05 05:44:03;;;;;;;7.88;2.22;;;9.20;1.00;;;;;;5032124;28;20041;-48
2023/02/05 05:46:29;;;;;;;7.63;2.67;;;9.20;1.00;;;;;;5030163;28;20029;-49
2023/02/05 05:48:57;;;;;;;16.53;3.47;;;9.10;1.00;;;;;;5031348;28;20075;-48
2023/02/05 05:51:25;;;;;;;10.13;2.17;;;8.90;1.00;;;;;;5031346;28;20113;-49
2023/02/05 05:53:50;;;;;;;6.87;2.67;;;8.90;1.00;;;;;;5031287;28;20033;-49
2023/02/05 05:56:16;;;;;;;10.40;2.30;;;9.10;1.00;;;;;;5032003;28;20029;-48
2023/02/05 05:58:43;;;;;;;6.70;2.37;;;9.10;1.00;;;;;;5019240;28;20060;-48
2023/02/05 06:01:10;;;;;;;8.13;2.47;;;8.80;1.00;;;;;;5031293;28;20482;-47
2023/02/05 06:03:36;;;;;;;7.37;2.10;;;9.00;1.00;;;;;;5031403;28;20486;-50
2023/02/05 06:06:03;;;;;;;8.60;2.43;;;9.00;1.00;;;;;;5031180;28;20097;-49
2023/02/05 06:08:41;;;;;;;5.07;2.43;;;9.00;1.00;;;;;;5031526;28;20110;-50
2023/02/05 06:11:07;;;;;;;9.80;2.53;;;8.90;1.00;;;;;;5031406;28;20033;-49
2023/02/05 06:13:33;;;;;;;10.10;2.50;;;9.00;1.00;;;;;;5034586;28;20029;-48
2023/02/05 06:16:05;;;;;;;4.97;2.17;;;8.80;1.00;;;;;;5035391;28;20017;-48
2023/02/05 06:18:31;;;;;;;5.97;2.13;;;9.00;1.00;;;;;;5031250;28;20056;-49
2023/02/05 06:20:56;;;;;;;5.73;2.03;;;9.00;1.00;;;;;;5035229;28;20462;-49
2023/02/05 06:23:22;;;;;;;7.23;2.10;;;8.80;1.00;;;;;;5035395;28;21849;-51
2023/02/05 06:25:48;;;;;;;8.33;2.27;;;9.00;1.00;;;;;;5031454;28;20033;-48
2023/02/05 06:28:13;;;;;;;10.33;2.53;;;9.00;1.00;;;;;;5026476;28;20030;-48
2023/02/05 06:30:39;;;;;;;5.67;2.30;;;9.00;1.00;;;;;;5035012;28;20467;-48
2023/02/05 06:33:04;;;;;;;7.43;2.10;;;9.00;1.00;;;;;;5035236;28;20065;-49
2023/02/05 06:35:30;;;;;;;5.57;2.30;;;8.90;1.00;;;;;;5034545;28;20372;-49
2023/02/05 06:37:56;;;;;;;8.50;2.40;;;8.80;1.00;;;;;;5035192;28;20087;-48
2023/02/05 06:40:24;;;;;;;4.13;2.07;;;8.90;1.00;;;;;;5034939;28;20336;-50
2023/02/05 06:42:53;;;;;;;5.90;2.30;;;8.90;1.00;;;;;;5034806;28;20075;-50
2023/02/05 06:45:19;;;;;;;6.60;2.43;;;8.90;1.00;;;;;;5034636;28;20037;-48
2023/02/05 06:47:45;;;;;;;5.20;1.80;;;8.90;1.00;;;;;;5035115;28;20387;-48
2023/02/05 06:50:10;;;;;;;4.57;2.30;;;8.90;1.00;;;;;;5034366;28;20022;-48
2023/02/05 06:52:36;;;;;;;8.23;2.10;;;8.80;1.00;;;;;;5034972;28;20109;-48
2023/02/05 06:55:02;;;;;;;9.53;3.00;;;8.90;1.00;;;;;;5034642;28;20432;-50
2023/02/05 06:57:27;;;;;;;8.80;2.20;;;8.80;1.00;;;;;;5033999;28;20044;-49
2023/02/05 06:59:53;;;;;;;10.33;1.97;;;8.80;1.00;;;;;;5034747;28;20030;-48
2023/02/05 07:02:19;;;;;;;10.43;2.60;;;8.80;1.00;;;;;;5034364;28;20029;-48
2023/02/05 07:04:45;;;;;;;7.33;1.93;;;8.90;1.00;;;;;;5034515;28;20053;-48
2023/02/05 07:07:10;;;;;;;6.77;2.20;;;8.90;1.00;;;;;;5034886;28;20022;-48
2023/02/05 07:09:36;;;;;;;8.87;2.67;;;8.90;1.00;;;;;;5032947;28;20073;-52
2023/02/05 07:12:02;;;;;;;8.47;2.33;;;8.90;1.00;;;;;;5034181;28;20037;-49
2023/02/05 07:14:27;;;;;;;7.37;1.90;;;8.70;1.00;;;;;;5034763;28;20022;-49
2023/02/05 07:16:53;;;;;;;8.03;2.10;;;8.90;1.00;;;;;;5033894;28;20056;-49
2023/02/05 07:19:18;;;;;;;9.17;2.47;;;8.90;1.00;;;;;;5034515;28;20048;-49
2023/02/05 07:21:44;;;;;;;7.97;2.20;;;8.90;1.00;;;;;;5033487;28;20030;-50
2023/02/05 07:24:10;;;;;;;8.87;2.97;;;8.80;1.00;;;;;;5033781;28;20037;-49
2023/02/05 07:26:35;;;;;;;10.07;2.47;;;8.80;1.00;;;;;;5034188;28;20045;-50
2023/02/05 07:29:01;;;;;;;10.20;2.67;;;8.70;1.00;;;;;;5034234;28;20018;-49
2023/02/05 07:31:27;;;;;;;4.73;2.23;;;8.70;1.00;;;;;;5033404;28;20423;-48
2023/02/05 07:33:53;;;;;;;10.47;2.80;;;8.70;1.00;;;;;;5033574;28;20103;-50
2023/02/05 07:36:18;;;;;;;7.23;2.27;;;8.50;1.00;;;;;;5034160;28;20029;-50
2023/02/05 07:38:45;;;;;;;12.73;2.70;;;8.80;1.00;;;;;;5034328;28;20087;-48
2023/02/05 07:41:13;;;;;;;11.60;2.70;;;8.80;1.00;;;;;;5033945;28;20479;-49
2023/02/05 07:43:40;;;;;;;5.47;2.13;;;8.80;1.00;;;;;;5032393;28;20036;-48
2023/02/05 07:46:09;;;;;;;8.77;2.73;;;8.70;1.00;;;;;;5033273;28;20128;-49
2023/02/05 07:48:35;;;;;;;7.13;2.77;;;8.70;1.00;;;;;;5032374;28;20021;-48
2023/02/05 07:51:01;;;;;;;8.83;2.50;;;8.80;1.00;;;;;;5033819;28;20025;-50
2023/02/05 07:53:27;;;;;;;10.67;2.87;;;8.80;1.00;;;;;;5019984;28;20018;-48
2023/02/05 07:55:52;;;;;;;6.97;3.17;;;8.90;1.00;;;;;;5022149;28;20021;-49
2023/02/05 07:58:18;;;;;;;6.27;2.87;;;8.90;1.00;;;;;;5021875;28;20099;-48
2023/02/05 08:00:44;;;;;;;11.17;2.50;;;8.90;1.00;;;;;;5033210;28;20021;-49
2023/02/05 08:03:10;;;;;;;7.23;2.40;;;8.90;1.00;;;;;;5031390;28;20396;-50
2023/02/05 08:05:36;;;;;;;9.63;2.23;;;8.90;1.00;;;;;;5032561;28;20040;-49
2023/02/05 08:08:02;;;;;;;7.70;2.53;;;8.90;1.00;;;;;;5032785;28;20026;-48
2023/02/05 08:10:28;;;;;;;6.23;2.20;;;8.90;1.00;;;;;;5032475;28;21689;-47
2023/02/05 08:12:54;;;;;;;8.17;2.60;;;8.90;1.00;;;;;;5033524;28;20025;-48
2023/02/05 08:15:19;;;;;;;6.70;2.00;;;8.80;1.00;;;;;;5023637;28;20357;-51
2023/02/05 08:17:45;;;;;;;8.83;2.87;;;8.70;1.00;;;;;;5033387;28;20111;-49
2023/02/05 08:20:11;;;;;;;13.37;2.80;;;8.70;1.00;;;;;;5032987;28;20479;-48
2023/02/05 08:22:40;;;;;;;8.00;2.50;;;8.80;1.00;;;;;;5032908;28;20124;-48
2023/02/05 08:25:10;;;;;;;13.57;2.80;;;8.80;1.00;;;;;;5029332;28;20115;-47
2023/02/05 08:27:38;;;;;;;5.40;2.03;;;8.70;1.00;;;;;;5032591;28;20032;-48
2023/02/05 08:30:07;;;;;;;13.87;2.70;;;8.80;1.00;;;;;;5033284;28;20144;-50
2023/02/05 08:32:33;;;;;;;6.77;2.17;;;8.70;1.00;;;;;;5032019;28;20032;-48
2023/02/05 08:34:59;;;;;;;7.90;2.37;;;8.80;1.00;;;;;;5032604;28;20025;-50
2023/02/05 08:37:25;;;;;;;4.43;1.97;;;8.70;1.00;;;;;;5032515;28;20108;-50
2023/02/05 08:39:51;;;;;;;8.97;2.97;;;8.70;1.00;;;;;;5033161;28;20017;-47
2023/02/05 08:42:17;;;;;;;10.90;2.40;;;8.80;1.00;;;;;;5032633;28;20152;-52
2023/02/05 08:44:43;;;;;;;8.40;2.43;;;8.90;1.00;;;;;;5032486;28;20102;-50
2023/02/05 08:47:08;;;;;;;9.33;2.40;;;8.80;1.00;;;;;;5033046;28;20022;-48
2023/02/05 08:49:34;;;;;;;7.20;2.27;;;8.80;1.00;;;;;;5032822;28;20037;-50
2023/02/05 08:52:00;;;;;;;7.33;2.47;;;8.80;1.00;;;;;;5032872;28;20041;-49
2023/02/05 08:54:25;;;;;;;10.27;2.40;;;8.80;1.00;;;;;;5033047;28;20441;-47
2023/02/05 08:56:51;;;;;;;5.67;2.50;;;8.90;1.00;;;;;;5032165;28;20029;-50
2023/02/05 08:59:18;;;;;;;10.80;3.03;;;8.80;1.00;;;;;;5032685;28;20097;-47
2023/02/05 09:01:44;;;;;;;8.13;2.83;;;9.00;1.00;;;;;;5032074;28;20044;-47
2023/02/05 09:04:13;;;;;;;6.10;2.13;;;8.90;1.00;;;;;;5031751;28;20442;-48
2023/02/05 09:06:40;;;;;;;8.20;2.57;;;8.70;1.00;;;;;;5031921;28;20038;-48
2023/02/05 09:09:05;;;;;;;9.03;2.67;;;8.80;1.00;;;;;;5031862;28;20096;-48
2023/02/05 09:11:31;;;;;;;9.53;2.10;;;8.80;1.00;;;;;;5032405;28;20111;-50
2023/02/05 09:13:57;;;;;;;4.40;1.90;;;8.90;1.00;;;;;;5031986;28;20025;-52
2023/02/05 09:16:23;;;;;;;11.00;3.80;;;8.80;1.00;;;;;;5028960;28;20053;-48
2023/02/05 09:18:49;;;;;;;8.03;2.67;;;8.90;1.00;;;;;;5023262;28;20116;-53
2023/02/05 09:21:15;;;;;;;9.20;2.70;;;9.00;1.00;;;;;;5032003;28;20112;-50
2023/02/05 09:23:41;;;;;;;5.37;2.13;;;9.10;1.00;;;;;;5032141;28;20025;-51
2023/02/05 09:26:08;;;;;;;5.53;2.03;;;9.10;1.00;;;;;;5031284;28;20029;-52
2023/02/05 09:28:34;;;;;;;5.87;2.23;;;8.90;1.00;;;;;;5032255;28;20025;-52
2023/02/05 09:31:07;;;;;;;5.60;2.60;;;8.80;1.00;;;;;;5031025;28;20029;-52
2023/02/05 09:33:33;;;;;;;12.50;3.03;;;8.90;1.00;;;;;;5032168;28;20037;-52
2023/02/05 09:36:12;;;;;;;9.43;2.20;;;9.00;1.00;;;;;;5032691;28;20057;-52
2023/02/05 09:38:40;;;;;;;7.47;2.20;;;8.90;1.00;;;;;;5043386;28;20475;-51
2023/02/05 09:41:13;;;;;;;6.77;2.60;;;8.90;1.00;;;;;;5031764;28;20033;-53
2023/02/05 09:43:56;;;;;;;5.00;2.10;;;8.80;1.00;;;;;;5030322;28;20037;-52
2023/02/05 09:46:36;;;;;;;5.53;1.70;;;9.00;1.00;;;;;;5019538;28;20037;-52
2023/02/05 09:49:22;;;;;;;5.87;2.03;;;9.20;1.00;;;;;;5030808;28;20033;-52
2023/02/05 09:51:56;;;;;;;6.20;2.03;;;9.20;1.00;;;;;;5031248;28;20095;-53
2023/02/05 09:54:26;;;;;;;6.32;2.53;;;9.20;1.00;;;;;;5031802;28;20064;-52
2023/02/05 09:56:56;;;;;;;9.03;3.57;;;9.20;1.00;;;;;;5031371;28;20017;-53
2023/02/05 09:59:25;;;;;;;7.33;3.13;;;9.30;1.00;;;;;;5031682;28;21312;-53
2023/02/05 10:02:02;;;;;;;8.80;2.50;;;9.20;1.00;;;;;;5030780;28;20029;-50
2023/02/05 10:04:28;;;;;;;8.87;2.50;;;9.30;1.00;;;;;;5030952;28;20040;-50
2023/02/05 10:07:12;;;;;;;4.50;1.93;;;9.30;1.00;;;;;;5031589;28;20025;-51
2023/02/05 10:09:59;;;;;;;12.33;2.73;;;9.30;1.00;;;;;;5030961;28;20099;-50
2023/02/05 10:12:49;;;;;;;7.03;2.80;;;9.40;1.00;;;;;;5023371;28;20056;-48
2023/02/05 10:15:34;;;;;;;13.87;3.20;;;9.50;1.00;;;;;;5019436;28;20037;-52
2023/02/05 10:18:09;;;;;;;6.25;2.05;;;9.50;1.00;;;;;;5029687;28;20017;-49
2023/02/05 10:20:45;;;;;;;;;;;9.60;1.00;;;;;;5032087;28;20037;-48
2023/02/05 10:23:38;;;;;;;10.27;2.27;;;9.40;1.00;;;;;;5031046;28;19917;-49
2023/02/05 10:26:11;;;;;;;7.03;2.27;;;9.60;1.00;;;;;;5031484;28;20034;-48
2023/02/05 10:28:58;;;;;;;6.00;2.70;;;9.60;1.00;;;;;;5030922;28;20107;-49
2023/02/05 10:31:56;;;;;;;8.90;2.23;;;9.70;1.00;;;;;;5031572;28;20051;-51
2023/02/05 10:34:28;;;;;;;5.60;2.50;;;9.60;1.00;;;;;;5022370;28;20068;-49
2023/02/05 10:36:53;;;;;;;7.07;1.63;;;9.60;1.00;;;;;;5036482;28;20332;-49
2023/02/05 10:39:24;;;;;;;4.77;2.53;;;9.60;1.00;;;;;;5019088;28;20022;-47
2023/02/05 10:42:02;;;;;;;6.77;2.30;;;9.60;1.00;;;;;;5024341;28;20112;-46
2023/02/05 10:44:42;;;;;;;6.47;2.00;;;9.60;1.00;;;;;;5035903;28;20521;-47
2023/02/05 10:47:17;;;;;;;3.87;2.10;;;9.70;1.00;;;;;;5021513;28;20393;-47
2023/02/05 10:50:15;;;;;;;7.40;2.83;;;9.80;1.00;;;;;;5031247;28;20108;-49
2023/02/05 10:52:40;;;;;;;6.03;2.67;;;9.70;1.00;;;;;;5030854;28;20018;-47
2023/02/05 10:55:11;;;;;;;5.23;2.43;;;9.80;1.00;;;;;;5030842;28;20120;-46
2023/02/05 10:57:37;;;;;;;6.27;2.13;;;9.80;1.00;;;;;;5030590;28;20017;-48
2023/02/05 11:00:11;;;;;;;8.13;2.67;;;9.80;1.00;;;;;;5034515;28;20040;-49
2023/02/05 11:02:39;;;;;;;7.70;2.30;;;9.90;1.00;;;;;;5033636;28;20042;-47
2023/02/05 11:05:25;;;;;;;7.73;2.40;;;9.90;1.00;;;;;;5034203;28;20041;-49
2023/02/05 11:07:52;;;;;;;5.57;1.60;;;9.90;1.00;;;;;;5034454;28;20027;-51
2023/02/05 11:10:21;;;;;;;5.90;2.00;;;10.00;1.00;;;;;;5034395;28;20467;-50
2023/02/05 11:13:00;;;;;;;6.17;2.00;;;10.00;1.00;;;;;;5034635;28;20080;-51
2023/02/05 11:15:28;;;;;;;3.43;2.00;;;10.10;1.00;;;;;;5034010;28;20025;-47
2023/02/05 11:18:04;;;;;;;6.00;2.10;;;9.90;1.00;;;;;;5033884;28;20025;-52
2023/02/05 11:20:37;;;;;;;4.93;2.20;;;10.00;1.00;;;;;;5034394;28;20021;-49
2023/02/05 11:23:19;;;;;;;5.40;2.53;;;10.20;1.00;;;;;;5034040;28;20424;-51
2023/02/05 11:25:57;;;;;;;4.43;1.90;;;10.20;1.00;;;;;;5033876;28;20072;-51
2023/02/05 11:28:25;;;;;;;8.63;1.77;;;10.50;1.00;;;;;;5021319;28;20033;-49
2023/02/05 11:30:51;;;;;;;8.83;2.30;;;10.40;1.00;;;;;;5033932;28;20025;-49
2023/02/05 11:33:26;;;;;;;6.03;1.97;;;10.60;1.00;;;;;;5034024;28;20032;-49
2023/02/05 11:35:56;;;;;;;5.80;2.17;;;10.70;1.00;;;;;;5033255;28;20048;-53
2023/02/05 11:38:49;;;;;;;3.80;2.00;;;10.80;1.00;;;;;;5020657;28;20044;-50
2023/02/05 11:41:25;;;;;;;6.43;2.10;;;10.90;1.00;;;;;;5033561;28;20529;-51
2023/02/05 11:43:52;;;;;;;3.05;2.55;;;10.80;1.00;;;;;;5034067;28;20490;-48
2023/02/05 11:46:20;;;;;;;6.18;1.73;;;10.90;1.00;;;;;;5033297;28;20052;-52
2023/02/05 11:48:52;;;;;;;3.92;2.00;;;11.00;1.00;;;;;;5033929;28;20021;-49
2023/02/05 11:51:41;;;;;;;8.10;3.17;;;11.10;1.00;;;;;;5033378;28;20041;-52
2023/02/05 11:54:16;;;;;;;4.30;2.25;;;11.20;1.00;;;;;;5033887;28;20360;-53
2023/02/05 11:56:41;;;;;;;2.70;1.80;;;11.30;1.00;;;;;;5033335;28;20113;-53
2023/02/05 11:59:22;;;;;;;3.30;1.77;;;11.30;1.00;;;;;;5033617;28;20379;-51
2023/02/05 12:01:48;;;;;;;6.25;1.65;;;11.20;1.00;;;;;;5032345;28;20026;-53
2023/02/05 12:04:17;;;;;;;6.88;2.95;;;11.00;1.00;;;;;;5032950;28;20058;-52
2023/02/05 12:06:50;;;;;;;6.80;2.30;;;11.10;1.00;;;;;;5032635;28;20486;-52
2023/02/05 12:09:19;;;;;;;6.00;2.47;;;11.00;1.00;;;;;;5033606;28;20022;-54
2023/02/05 12:12:02;;;;;;;3.72;2.10;;;11.00;1.00;;;;;;5032741;28;20260;-49
2023/02/05 12:15:02;;;;;;;5.38;2.08;;;11.00;1.00;;;;;;5032385;28;20032;-51
2023/02/05 12:17:33;;;;;;;6.63;2.50;;;10.90;1.00;;;;;;5032797;28;20033;-48
2023/02/05 12:20:19;;;;;;;5.93;2.37;;;10.90;1.00;;;;;;5030771;28;20036;-48
2023/02/05 12:22:53;;;;;;;3.00;1.58;;;10.90;1.00;;;;;;5026166;28;20394;-49
2023/02/05 12:25:32;;;;;;;3.75;1.92;;;11.10;1.00;;;;;;5032642;28;20130;-48
2023/02/05 12:28:33;;;;;;;2.40;1.70;;;11.00;1.00;;;;;;5033425;28;20340;-49
2023/02/05 12:31:06;;;;;;;4.13;1.48;;;10.90;1.00;;;;;;5032380;28;20121;-52
2023/02/05 12:33:47;;;;;;;12.05;4.57;;;10.90;1.00;;;;;;5033197;28;20376;-48
2023/02/05 12:37:00;;;;;;;4.63;2.00;;;10.90;1.00;;;;;;5029035;28;20064;-49
2023/02/05 12:39:43;;;;;;;7.65;2.55;;;10.80;1.00;;;;;;5025837;28;20117;-48
2023/02/05 12:42:33;;;;;;;6.32;2.10;;;10.90;1.00;;;;;;5023112;28;20069;-48
2023/02/05 12:45:34;;;;;;;5.10;2.92;;;10.80;1.00;;;;;;5032287;28;20033;-49
2023/02/05 12:48:05;;;;;;;5.30;2.00;;;11.00;1.00;;;;;;5029064;28;20014;-48
2023/02/05 12:50:53;;;;;;;7.95;3.33;;;11.00;1.00;;;;;;5032531;28;20048;-52
2023/02/05 12:53:25;;;;;;;5.50;3.08;;;10.90;1.00;;;;;;5032413;28;20033;-50
2023/02/05 12:56:11;;;;;;;5.57;2.83;;;10.90;1.00;;;;;;5032258;28;20056;-51
2023/02/05 12:58:43;;;;;;;5.68;1.80;;;11.00;1.00;;;;;;5028953;28;20034;-52
2023/02/05 13:01:16;;;;;;;6.47;2.10;;;11.10;1.00;;;;;;5032334;28;20033;-49
2023/02/05 13:03:47;;;;;;;4.88;2.42;;;11.10;1.00;;;;;;5032181;28;20128;-48
2023/02/05 13:06:30;;;;;;;6.38;2.22;;;11.20;1.00;;;;;;5032108;28;20056;-53
2023/02/05 13:09:17;;;;;;;4.03;2.13;;;11.10;1.00;;;;;;5019044;28;20017;-54
2023/02/05 13:12:03;;;;;;;6.03;2.20;;;11.20;1.00;;;;;;5032305;28;20046;-48
2023/02/05 13:14:38;;;;;;;6.32;2.00;;;11.10;1.00;;;;;;5032816;28;20040;-50
2023/02/05 13:17:06;;;;;;;4.40;2.38;;;11.10;1.00;;;;;;5032019;28;20033;-54
2023/02/05 13:19:53;;;;;;;7.40;1.83;;;11.10;1.00;;;;;;5032313;28;20044;-49
2023/02/05 13:28:43;;;;;;;7.40;1.83;;;11.20;1.00;;;;;;5031929;28;20049;-51
2023/02/05 13:31:26;;;;;;;7.57;2.13;;;11.30;1.00;;;;;;5031322;28;20029;-48
2023/02/05 13:33:55;;;;;;;5.20;2.17;;;11.10;1.00;;;;;;5031397;28;20029;-51